sensor_id;sensor_type;location;lat;lon;timestamp;P1;durP1;ratioP1;P2;durP2;ratioP2
38455;SDS011;24237;50.106;20.014;2024-03-23T00:53:30;80.88;;;44.63;;
38455;SDS011;24237;50.106;20.014;2024-03-23T00:55:56;68.90;;;38.53;;
38455;SDS011;24237;50.106;20.014;2024-03-23T00:58:21;73.38;;;39.25;;
38455;SDS011;24237;50.106;20.014;2024-03-23T01:00:47;77.35;;;42.25;;
38455;SDS011;24237;50.106;20.014;2024-03-23T01:03:12;79.00;;;42.97;;
38455;SDS011;24237;50.106;20.014;2024-03-23T01:05:38;81.95;;;44.42;;
38455;SDS011;24237;50.106;20.014;2024-03-23T01:08:04;94.40;;;50.45;;
38455;SDS011;24237;50.106;20.014;2024-03-23T01:10:30;84.53;;;47.33;;
38455;SDS011;24237;50.106;20.014;2024-03-23T01:12:55;80.10;;;44.60;;
38455;SDS011;24237;50.106;20.014;2024-03-23T01:15:21;78.45;;;43.42;;
38455;SDS011;24237;50.106;20.014;2024-03-23T01:17:47;80.38;;;44.55;;
38455;SDS011;24237;50.106;20.014;2024-03-23T01:20:12;82.90;;;45.08;;
38455;SDS011;24237;50.106;20.014;2024-03-23T01:22:38;83.10;;;44.95;;
38455;SDS011;24237;50.106;20.014;2024-03-23T01:25:04;81.50;;;43.75;;
38455;SDS011;24237;50.106;20.014;2024-03-23T01:27:29;84.75;;;42.00;;
38455;SDS011;24237;50.106;20.014;2024-03-23T01:29:55;87.25;;;45.40;;
38455;SDS011;24237;50.106;20.014;2024-03-23T01:32:21;80.20;;;42.80;;
38455;SDS011;24237;50.106;20.014;2024-03-23T01:34:48;81.80;;;45.90;;
38455;SDS011;24237;50.106;20.014;2024-03-23T01:37:13;86.38;;;43.15;;
38455;SDS011;24237;50.106;20.014;2024-03-23T01:39:39;81.72;;;44.00;;
38455;SDS011;24237;50.106;20.014;2024-03-23T01:42:04;74.28;;;43.00;;
38455;SDS011;24237;50.106;20.014;2024-03-23T01:44:30;93.38;;;48.17;;
38455;SDS011;24237;50.106;20.014;2024-03-23T01:46:56;81.18;;;43.95;;
38455;SDS011;24237;50.106;20.014;2024-03-23T01:49:21;81.28;;;41.03;;
38455;SDS011;24237;50.106;20.014;2024-03-23T01:51:47;71.22;;;40.47;;
38455;SDS011;24237;50.106;20.014;2024-03-23T01:54:13;73.45;;;39.67;;
38455;SDS011;24237;50.106;20.014;2024-03-23T01:56:39;72.70;;;39.50;;
38455;SDS011;24237;50.106;20.014;2024-03-23T01:59:05;72.60;;;38.55;;
38455;SDS011;24237;50.106;20.014;2024-03-23T02:01:31;74.15;;;38.85;;
38455;SDS011;24237;50.106;20.014;2024-03-23T02:03:57;67.90;;;34.63;;
38455;SDS011;24237;50.106;20.014;2024-03-23T02:06:26;65.63;;;35.60;;
38455;SDS011;24237;50.106;20.014;2024-03-23T02:08:52;56.78;;;31.35;;
38455;SDS011;24237;50.106;20.014;2024-03-23T02:11:19;69.53;;;37.42;;
38455;SDS011;24237;50.106;20.014;2024-03-23T02:13:44;59.80;;;29.45;;
38455;SDS011;24237;50.106;20.014;2024-03-23T02:16:10;55.83;;;29.98;;
38455;SDS011;24237;50.106;20.014;2024-03-23T02:18:36;49.80;;;28.30;;
38455;SDS011;24237;50.106;20.014;2024-03-23T02:21:02;59.03;;;27.65;;
38455;SDS011;24237;50.106;20.014;2024-03-23T02:23:28;56.60;;;29.80;;
38455;SDS011;24237;50.106;20.014;2024-03-23T02:25:53;57.03;;;30.38;;
38455;SDS011;24237;50.106;20.014;2024-03-23T02:28:19;51.80;;;29.20;;
38455;SDS011;24237;50.106;20.014;2024-03-23T02:30:45;48.47;;;26.45;;
38455;SDS011;24237;50.106;20.014;2024-03-23T02:33:11;44.30;;;22.80;;
38455;SDS011;24237;50.106;20.014;2024-03-23T02:35:36;36.97;;;21.63;;
38455;SDS011;24237;50.106;20.014;2024-03-23T02:38:02;50.67;;;26.55;;
38455;SDS011;24237;50.106;20.014;2024-03-23T02:40:28;62.20;;;31.95;;
38455;SDS011;24237;50.106;20.014;2024-03-23T02:42:54;57.38;;;32.22;;
38455;SDS011;24237;50.106;20.014;2024-03-23T02:45:20;58.65;;;33.13;;
38455;SDS011;24237;50.106;20.014;2024-03-23T02:47:45;64.30;;;35.47;;
38455;SDS011;24237;50.106;20.014;2024-03-23T02:50:11;67.88;;;36.03;;
38455;SDS011;24237;50.106;20.014;2024-03-23T02:52:37;66.18;;;35.83;;
38455;SDS011;24237;50.106;20.014;2024-03-23T02:55:03;68.55;;;37.45;;
38455;SDS011;24237;50.106;20.014;2024-03-23T02:57:29;67.37;;;37.27;;
38455;SDS011;24237;50.106;20.014;2024-03-23T02:59:55;71.80;;;38.45;;
38455;SDS011;24237;50.106;20.014;2024-03-23T03:02:23;68.65;;;36.13;;
38455;SDS011;24237;50.106;20.014;2024-03-23T03:04:49;65.25;;;35.20;;
38455;SDS011;24237;50.106;20.014;2024-03-23T03:07:15;64.40;;;35.88;;
38455;SDS011;24237;50.106;20.014;2024-03-23T03:09:40;65.85;;;34.63;;
38455;SDS011;24237;50.106;20.014;2024-03-23T03:12:06;62.05;;;34.30;;
38455;SDS011;24237;50.106;20.014;2024-03-23T03:14:32;59.72;;;35.50;;
38455;SDS011;24237;50.106;20.014;2024-03-23T03:16:58;69.32;;;39.08;;
38455;SDS011;24237;50.106;20.014;2024-03-23T03:19:24;65.65;;;36.58;;
38455;SDS011;24237;50.106;20.014;2024-03-23T03:21:50;66.57;;;36.80;;
38455;SDS011;24237;50.106;20.014;2024-03-23T03:24:15;68.13;;;38.05;;
38455;SDS011;24237;50.106;20.014;2024-03-23T03:26:41;73.70;;;39.63;;
38455;SDS011;24237;50.106;20.014;2024-03-23T03:29:07;70.20;;;39.42;;
38455;SDS011;24237;50.106;20.014;2024-03-23T03:31:33;70.03;;;37.55;;
38455;SDS011;24237;50.106;20.014;2024-03-23T03:33:58;71.93;;;38.75;;
38455;SDS011;24237;50.106;20.014;2024-03-23T03:36:24;64.10;;;37.95;;
38455;SDS011;24237;50.106;20.014;2024-03-23T03:38:50;73.28;;;40.05;;
38455;SDS011;24237;50.106;20.014;2024-03-23T03:41:15;72.28;;;38.40;;
38455;SDS011;24237;50.106;20.014;2024-03-23T03:43:41;68.57;;;39.45;;
38455;SDS011;24237;50.106;20.014;2024-03-23T03:46:07;67.03;;;37.22;;
38455;SDS011;24237;50.106;20.014;2024-03-23T03:48:33;72.53;;;39.35;;
38455;SDS011;24237;50.106;20.014;2024-03-23T03:50:59;71.80;;;38.72;;
38455;SDS011;24237;50.106;20.014;2024-03-23T03:53:25;70.32;;;38.70;;
38455;SDS011;24237;50.106;20.014;2024-03-23T03:55:51;68.97;;;38.00;;
38455;SDS011;24237;50.106;20.014;2024-03-23T03:58:17;68.30;;;37.95;;
38455;SDS011;24237;50.106;20.014;2024-03-23T04:00:42;71.55;;;38.65;;
38455;SDS011;24237;50.106;20.014;2024-03-23T04:03:08;72.07;;;35.35;;
38455;SDS011;24237;50.106;20.014;2024-03-23T04:05:33;63.30;;;34.83;;
38455;SDS011;24237;50.106;20.014;2024-03-23T04:07:59;53.67;;;33.17;;
38455;SDS011;24237;50.106;20.014;2024-03-23T04:10:25;60.35;;;32.72;;
38455;SDS011;24237;50.106;20.014;2024-03-23T04:12:51;53.40;;;30.90;;
38455;SDS011;24237;50.106;20.014;2024-03-23T04:15:18;62.40;;;34.47;;
38455;SDS011;24237;50.106;20.014;2024-03-23T04:17:44;58.55;;;32.85;;
38455;SDS011;24237;50.106;20.014;2024-03-23T04:20:10;62.53;;;33.75;;
38455;SDS011;24237;50.106;20.014;2024-03-23T04:22:37;56.72;;;34.13;;
38455;SDS011;24237;50.106;20.014;2024-03-23T04:25:03;65.57;;;37.38;;
38455;SDS011;24237;50.106;20.014;2024-03-23T04:27:38;56.67;;;31.85;;
38455;SDS011;24237;50.106;20.014;2024-03-23T04:30:05;66.15;;;36.42;;
38455;SDS011;24237;50.106;20.014;2024-03-23T04:32:35;67.18;;;37.08;;
38455;SDS011;24237;50.106;20.014;2024-03-23T04:35:04;62.40;;;35.72;;
38455;SDS011;24237;50.106;20.014;2024-03-23T04:37:36;75.35;;;39.08;;
38455;SDS011;24237;50.106;20.014;2024-03-23T04:40:02;77.07;;;41.58;;
38455;SDS011;24237;50.106;20.014;2024-03-23T04:42:29;71.82;;;39.17;;
38455;SDS011;24237;50.106;20.014;2024-03-23T04:44:55;74.95;;;39.88;;
38455;SDS011;24237;50.106;20.014;2024-03-23T04:47:21;69.65;;;38.92;;
38455;SDS011;24237;50.106;20.014;2024-03-23T04:49:47;80.28;;;40.47;;
38455;SDS011;24237;50.106;20.014;2024-03-23T04:52:13;75.20;;;42.10;;
38455;SDS011;24237;50.106;20.014;2024-03-23T04:54:39;78.30;;;42.40;;
38455;SDS011;24237;50.106;20.014;2024-03-23T04:57:05;75.85;;;41.15;;
38455;SDS011;24237;50.106;20.014;2024-03-23T04:59:31;84.45;;;45.20;;
38455;SDS011;24237;50.106;20.014;2024-03-23T05:01:57;82.22;;;44.67;;
38455;SDS011;24237;50.106;20.014;2024-03-23T05:04:22;84.45;;;47.08;;
38455;SDS011;24237;50.106;20.014;2024-03-23T05:06:48;90.35;;;46.83;;
38455;SDS011;24237;50.106;20.014;2024-03-23T05:09:14;102.03;;;50.88;;
38455;SDS011;24237;50.106;20.014;2024-03-23T05:11:39;112.00;;;54.60;;
38455;SDS011;24237;50.106;20.014;2024-03-23T05:14:06;96.60;;;46.85;;
38455;SDS011;24237;50.106;20.014;2024-03-23T05:16:32;105.18;;;49.22;;
38455;SDS011;24237;50.106;20.014;2024-03-23T05:18:58;106.47;;;52.38;;
38455;SDS011;24237;50.106;20.014;2024-03-23T05:21:24;100.80;;;47.33;;
38455;SDS011;24237;50.106;20.014;2024-03-23T05:23:49;102.65;;;49.72;;
38455;SDS011;24237;50.106;20.014;2024-03-23T05:26:16;103.40;;;50.47;;
38455;SDS011;24237;50.106;20.014;2024-03-23T05:28:42;99.72;;;51.03;;
38455;SDS011;24237;50.106;20.014;2024-03-23T05:31:08;90.18;;;47.25;;
38455;SDS011;24237;50.106;20.014;2024-03-23T05:33:35;90.57;;;46.45;;
38455;SDS011;24237;50.106;20.014;2024-03-23T05:36:03;82.00;;;44.97;;
38455;SDS011;24237;50.106;20.014;2024-03-23T05:38:29;84.57;;;42.38;;
38455;SDS011;24237;50.106;20.014;2024-03-23T05:40:55;81.93;;;44.90;;
38455;SDS011;24237;50.106;20.014;2024-03-23T05:43:22;75.28;;;41.38;;
38455;SDS011;24237;50.106;20.014;2024-03-23T05:45:57;75.88;;;40.28;;
38455;SDS011;24237;50.106;20.014;2024-03-23T05:48:24;64.95;;;38.25;;
38455;SDS011;24237;50.106;20.014;2024-03-23T05:50:51;72.32;;;39.42;;
38455;SDS011;24237;50.106;20.014;2024-03-23T05:53:17;80.60;;;45.00;;
38455;SDS011;24237;50.106;20.014;2024-03-23T05:55:43;64.50;;;36.00;;
38455;SDS011;24237;50.106;20.014;2024-03-23T05:58:09;68.78;;;37.30;;
38455;SDS011;24237;50.106;20.014;2024-03-23T06:00:35;65.70;;;35.97;;
38455;SDS011;24237;50.106;20.014;2024-03-23T06:03:01;64.68;;;34.97;;
38455;SDS011;24237;50.106;20.014;2024-03-23T06:05:27;73.88;;;35.83;;
38455;SDS011;24237;50.106;20.014;2024-03-23T06:07:52;67.70;;;35.95;;
38455;SDS011;24237;50.106;20.014;2024-03-23T06:10:18;62.38;;;33.13;;
38455;SDS011;24237;50.106;20.014;2024-03-23T06:12:45;58.90;;;32.65;;
38455;SDS011;24237;50.106;20.014;2024-03-23T06:15:11;62.08;;;32.35;;
38455;SDS011;24237;50.106;20.014;2024-03-23T06:17:37;60.17;;;33.05;;
38455;SDS011;24237;50.106;20.014;2024-03-23T06:20:03;62.42;;;32.55;;
38455;SDS011;24237;50.106;20.014;2024-03-23T06:22:31;57.05;;;31.70;;
38455;SDS011;24237;50.106;20.014;2024-03-23T06:24:57;56.80;;;31.75;;
38455;SDS011;24237;50.106;20.014;2024-03-23T06:27:22;54.55;;;32.30;;
38455;SDS011;24237;50.106;20.014;2024-03-23T06:29:48;57.50;;;30.95;;
38455;SDS011;24237;50.106;20.014;2024-03-23T06:32:13;58.88;;;32.90;;
38455;SDS011;24237;50.106;20.014;2024-03-23T06:34:42;63.38;;;32.35;;
38455;SDS011;24237;50.106;20.014;2024-03-23T06:37:08;57.42;;;33.15;;
38455;SDS011;24237;50.106;20.014;2024-03-23T06:39:35;62.13;;;34.67;;
38455;SDS011;24237;50.106;20.014;2024-03-23T06:42:04;52.90;;;30.73;;
38455;SDS011;24237;50.106;20.014;2024-03-23T06:44:30;60.00;;;31.60;;
38455;SDS011;24237;50.106;20.014;2024-03-23T06:46:56;55.65;;;31.23;;
38455;SDS011;24237;50.106;20.014;2024-03-23T06:49:25;58.50;;;32.55;;
38455;SDS011;24237;50.106;20.014;2024-03-23T06:51:50;72.15;;;34.95;;
38455;SDS011;24237;50.106;20.014;2024-03-23T06:54:16;54.45;;;31.38;;
38455;SDS011;24237;50.106;20.014;2024-03-23T06:56:46;60.47;;;33.15;;
38455;SDS011;24237;50.106;20.014;2024-03-23T06:59:11;56.42;;;32.45;;
38455;SDS011;24237;50.106;20.014;2024-03-23T07:01:37;64.55;;;32.38;;
38455;SDS011;24237;50.106;20.014;2024-03-23T07:04:03;51.53;;;30.50;;
38455;SDS011;24237;50.106;20.014;2024-03-23T07:06:32;51.10;;;30.10;;
38455;SDS011;24237;50.106;20.014;2024-03-23T07:08:57;54.97;;;30.73;;
38455;SDS011;24237;50.106;20.014;2024-03-23T07:11:23;50.05;;;28.35;;
38455;SDS011;24237;50.106;20.014;2024-03-23T07:13:50;54.70;;;26.27;;
38455;SDS011;24237;50.106;20.014;2024-03-23T07:16:16;50.25;;;27.88;;
38455;SDS011;24237;50.106;20.014;2024-03-23T07:18:42;46.60;;;27.02;;
38455;SDS011;24237;50.106;20.014;2024-03-23T07:21:07;48.30;;;26.17;;
38455;SDS011;24237;50.106;20.014;2024-03-23T07:23:33;47.08;;;26.30;;
38455;SDS011;24237;50.106;20.014;2024-03-23T07:26:03;44.10;;;24.80;;
38455;SDS011;24237;50.106;20.014;2024-03-23T07:28:30;43.38;;;25.13;;
38455;SDS011;24237;50.106;20.014;2024-03-23T07:33:32;43.25;;;25.20;;
38455;SDS011;24237;50.106;20.014;2024-03-23T07:35:58;43.17;;;25.05;;
38455;SDS011;24237;50.106;20.014;2024-03-23T07:38:26;48.60;;;24.45;;
38455;SDS011;24237;50.106;20.014;2024-03-23T07:40:55;47.22;;;24.63;;
38455;SDS011;24237;50.106;20.014;2024-03-23T07:43:31;44.83;;;25.23;;
38455;SDS011;24237;50.106;20.014;2024-03-23T07:46:00;44.03;;;24.48;;
38455;SDS011;24237;50.106;20.014;2024-03-23T07:48:26;45.67;;;24.45;;
38455;SDS011;24237;50.106;20.014;2024-03-23T07:51:03;41.75;;;24.63;;
38455;SDS011;24237;50.106;20.014;2024-03-23T07:53:36;43.05;;;24.17;;
38455;SDS011;24237;50.106;20.014;2024-03-23T07:58:30;48.38;;;26.48;;
38455;SDS011;24237;50.106;20.014;2024-03-23T08:00:56;52.53;;;29.73;;
38455;SDS011;24237;50.106;20.014;2024-03-23T08:03:29;53.85;;;31.30;;
38455;SDS011;24237;50.106;20.014;2024-03-23T08:05:55;59.42;;;37.33;;
38455;SDS011;24237;50.106;20.014;2024-03-23T08:08:20;55.75;;;37.42;;
38455;SDS011;24237;50.106;20.014;2024-03-23T08:10:55;65.47;;;40.20;;
38455;SDS011;24237;50.106;20.014;2024-03-23T08:13:20;62.28;;;37.75;;
38455;SDS011;24237;50.106;20.014;2024-03-23T08:15:46;65.60;;;40.95;;
38455;SDS011;24237;50.106;20.014;2024-03-23T08:18:12;62.47;;;39.38;;
38455;SDS011;24237;50.106;20.014;2024-03-23T08:20:38;65.43;;;36.65;;
38455;SDS011;24237;50.106;20.014;2024-03-23T08:23:07;59.80;;;33.80;;
38455;SDS011;24237;50.106;20.014;2024-03-23T08:25:33;57.20;;;34.15;;
38455;SDS011;24237;50.106;20.014;2024-03-23T08:28:00;58.50;;;34.07;;
38455;SDS011;24237;50.106;20.014;2024-03-23T08:30:26;53.75;;;30.52;;
38455;SDS011;24237;50.106;20.014;2024-03-23T08:32:51;61.05;;;31.85;;
38455;SDS011;24237;50.106;20.014;2024-03-23T08:35:17;46.17;;;26.83;;
38455;SDS011;24237;50.106;20.014;2024-03-23T08:37:43;47.78;;;28.33;;
38455;SDS011;24237;50.106;20.014;2024-03-23T08:40:08;55.08;;;30.13;;
38455;SDS011;24237;50.106;20.014;2024-03-23T08:42:35;50.60;;;24.52;;
38455;SDS011;24237;50.106;20.014;2024-03-23T08:45:00;49.22;;;23.67;;
38455;SDS011;24237;50.106;20.014;2024-03-23T08:47:26;48.15;;;24.27;;
38455;SDS011;24237;50.106;20.014;2024-03-23T08:49:52;46.42;;;24.40;;
38455;SDS011;24237;50.106;20.014;2024-03-23T08:52:17;41.80;;;22.63;;
38455;SDS011;24237;50.106;20.014;2024-03-23T08:54:43;49.40;;;24.55;;
38455;SDS011;24237;50.106;20.014;2024-03-23T08:57:09;43.70;;;22.02;;
38455;SDS011;24237;50.106;20.014;2024-03-23T08:59:34;41.80;;;23.10;;
38455;SDS011;24237;50.106;20.014;2024-03-23T09:02:00;43.03;;;21.30;;
38455;SDS011;24237;50.106;20.014;2024-03-23T09:04:26;43.20;;;21.30;;
38455;SDS011;24237;50.106;20.014;2024-03-23T09:06:51;39.17;;;20.20;;
38455;SDS011;24237;50.106;20.014;2024-03-23T09:09:17;45.03;;;20.17;;
38455;SDS011;24237;50.106;20.014;2024-03-23T09:11:43;47.85;;;19.73;;
38455;SDS011;24237;50.106;20.014;2024-03-23T09:14:08;40.85;;;18.65;;
38455;SDS011;24237;50.106;20.014;2024-03-23T09:16:34;39.22;;;21.17;;
38455;SDS011;24237;50.106;20.014;2024-03-23T09:19:00;36.42;;;20.38;;
38455;SDS011;24237;50.106;20.014;2024-03-23T09:21:26;32.38;;;18.45;;
38455;SDS011;24237;50.106;20.014;2024-03-23T09:23:51;31.75;;;16.17;;
38455;SDS011;24237;50.106;20.014;2024-03-23T09:26:17;32.20;;;16.17;;
38455;SDS011;24237;50.106;20.014;2024-03-23T09:28:43;29.85;;;15.77;;
38455;SDS011;24237;50.106;20.014;2024-03-23T09:31:08;28.60;;;16.63;;
38455;SDS011;24237;50.106;20.014;2024-03-23T09:33:39;24.80;;;13.38;;
38455;SDS011;24237;50.106;20.014;2024-03-23T09:36:05;27.55;;;13.38;;
38455;SDS011;24237;50.106;20.014;2024-03-23T09:38:31;19.52;;;12.38;;
38455;SDS011;24237;50.106;20.014;2024-03-23T09:40:57;25.25;;;12.13;;
38455;SDS011;24237;50.106;20.014;2024-03-23T09:43:24;23.27;;;12.87;;
38455;SDS011;24237;50.106;20.014;2024-03-23T09:45:50;22.50;;;11.82;;
38455;SDS011;24237;50.106;20.014;2024-03-23T09:48:16;23.33;;;11.93;;
38455;SDS011;24237;50.106;20.014;2024-03-23T09:50:43;21.40;;;12.50;;
38455;SDS011;24237;50.106;20.014;2024-03-23T09:53:12;20.83;;;12.15;;
38455;SDS011;24237;50.106;20.014;2024-03-23T09:55:39;26.58;;;11.75;;
38455;SDS011;24237;50.106;20.014;2024-03-23T09:58:06;21.75;;;12.45;;
38455;SDS011;24237;50.106;20.014;2024-03-23T10:00:32;22.33;;;12.63;;
38455;SDS011;24237;50.106;20.014;2024-03-23T10:02:58;20.75;;;13.07;;
38455;SDS011;24237;50.106;20.014;2024-03-23T10:05:27;26.85;;;13.57;;
38455;SDS011;24237;50.106;20.014;2024-03-23T10:07:53;25.13;;;13.43;;
38455;SDS011;24237;50.106;20.014;2024-03-23T10:10:19;24.48;;;13.23;;
38455;SDS011;24237;50.106;20.014;2024-03-23T10:12:47;23.05;;;13.63;;
38455;SDS011;24237;50.106;20.014;2024-03-23T10:15:24;25.58;;;13.13;;
38455;SDS011;24237;50.106;20.014;2024-03-23T10:17:50;27.50;;;14.65;;
38455;SDS011;24237;50.106;20.014;2024-03-23T10:20:20;19.42;;;11.82;;
38455;SDS011;24237;50.106;20.014;2024-03-23T10:22:49;21.25;;;11.13;;
38455;SDS011;24237;50.106;20.014;2024-03-23T10:25:16;23.45;;;10.27;;
38455;SDS011;24237;50.106;20.014;2024-03-23T10:27:42;22.65;;;11.27;;
38455;SDS011;24237;50.106;20.014;2024-03-23T10:30:09;18.27;;;10.13;;
38455;SDS011;24237;50.106;20.014;2024-03-23T10:32:42;18.73;;;10.20;;
38455;SDS011;24237;50.106;20.014;2024-03-23T10:35:20;15.98;;;9.60;;
38455;SDS011;24237;50.106;20.014;2024-03-23T10:37:49;21.25;;;10.02;;
38455;SDS011;24237;50.106;20.014;2024-03-23T10:42:43;14.90;;;8.98;;
38455;SDS011;24237;50.106;20.014;2024-03-23T10:45:10;17.58;;;8.52;;
38455;SDS011;24237;50.106;20.014;2024-03-23T10:47:36;14.60;;;8.27;;
38455;SDS011;24237;50.106;20.014;2024-03-23T10:50:03;14.93;;;7.80;;
38455;SDS011;24237;50.106;20.014;2024-03-23T10:52:33;14.93;;;6.85;;
38455;SDS011;24237;50.106;20.014;2024-03-23T10:54:59;11.52;;;6.15;;
38455;SDS011;24237;50.106;20.014;2024-03-23T10:57:31;9.20;;;6.00;;
38455;SDS011;24237;50.106;20.014;2024-03-23T11:00:02;10.18;;;6.00;;
38455;SDS011;24237;50.106;20.014;2024-03-23T11:02:29;11.10;;;6.22;;
38455;SDS011;24237;50.106;20.014;2024-03-23T11:04:55;9.43;;;6.57;;
38455;SDS011;24237;50.106;20.014;2024-03-23T11:07:28;8.55;;;4.75;;
38455;SDS011;24237;50.106;20.014;2024-03-23T11:09:55;11.35;;;4.63;;
38455;SDS011;24237;50.106;20.014;2024-03-23T11:15:06;5.82;;;3.53;;
38455;SDS011;24237;50.106;20.014;2024-03-23T11:17:37;7.72;;;3.60;;
38455;SDS011;24237;50.106;20.014;2024-03-23T11:20:04;6.10;;;3.35;;
38455;SDS011;24237;50.106;20.014;2024-03-23T11:27:53;12.13;;;4.10;;
38455;SDS011;24237;50.106;20.014;2024-03-23T11:30:21;7.90;;;4.07;;
38455;SDS011;24237;50.106;20.014;2024-03-23T11:32:51;5.13;;;3.40;;
38455;SDS011;24237;50.106;20.014;2024-03-23T11:35:29;13.20;;;4.40;;
38455;SDS011;24237;50.106;20.014;2024-03-23T11:40:31;9.18;;;3.97;;
38455;SDS011;24237;50.106;20.014;2024-03-23T11:42:58;10.55;;;4.28;;
38455;SDS011;24237;50.106;20.014;2024-03-23T11:45:24;10.82;;;4.60;;
38455;SDS011;24237;50.106;20.014;2024-03-23T11:50:39;7.78;;;3.67;;
38455;SDS011;24237;50.106;20.014;2024-03-23T11:55:43;6.07;;;3.40;;
38455;SDS011;24237;50.106;20.014;2024-03-23T11:58:09;5.70;;;3.58;;
38455;SDS011;24237;50.106;20.014;2024-03-23T12:00:36;13.15;;;3.80;;
38455;SDS011;24237;50.106;20.014;2024-03-23T12:03:02;7.60;;;3.80;;
38455;SDS011;24237;50.106;20.014;2024-03-23T12:05:28;7.13;;;3.60;;
38455;SDS011;24237;50.106;20.014;2024-03-23T12:07:55;6.95;;;3.03;;
38455;SDS011;24237;50.106;20.014;2024-03-23T12:10:39;7.90;;;3.30;;
38455;SDS011;24237;50.106;20.014;2024-03-23T12:13:05;6.57;;;3.55;;
38455;SDS011;24237;50.106;20.014;2024-03-23T12:15:31;5.88;;;2.80;;
38455;SDS011;24237;50.106;20.014;2024-03-23T12:18:06;4.10;;;2.70;;
38455;SDS011;24237;50.106;20.014;2024-03-23T12:20:33;9.82;;;3.50;;
38455;SDS011;24237;50.106;20.014;2024-03-23T12:23:07;6.43;;;3.22;;
38455;SDS011;24237;50.106;20.014;2024-03-23T12:25:35;8.75;;;3.10;;
38455;SDS011;24237;50.106;20.014;2024-03-23T12:28:01;4.85;;;2.85;;
38455;SDS011;24237;50.106;20.014;2024-03-23T12:30:27;5.65;;;2.75;;
38455;SDS011;24237;50.106;20.014;2024-03-23T12:32:52;10.90;;;3.03;;
38455;SDS011;24237;50.106;20.014;2024-03-23T12:35:18;4.18;;;2.60;;
38455;SDS011;24237;50.106;20.014;2024-03-23T12:37:44;5.03;;;3.03;;
38455;SDS011;24237;50.106;20.014;2024-03-23T12:40:10;4.72;;;2.53;;
38455;SDS011;24237;50.106;20.014;2024-03-23T12:42:36;5.28;;;2.80;;
38455;SDS011;24237;50.106;20.014;2024-03-23T12:45:02;5.20;;;3.17;;
38455;SDS011;24237;50.106;20.014;2024-03-23T12:47:29;5.93;;;2.60;;
38455;SDS011;24237;50.106;20.014;2024-03-23T12:49:55;3.67;;;2.47;;
38455;SDS011;24237;50.106;20.014;2024-03-23T12:52:21;6.55;;;2.15;;
38455;SDS011;24237;50.106;20.014;2024-03-23T12:54:49;3.72;;;2.10;;
38455;SDS011;24237;50.106;20.014;2024-03-23T12:57:14;7.80;;;2.00;;
38455;SDS011;24237;50.106;20.014;2024-03-23T12:59:40;3.92;;;2.00;;
38455;SDS011;24237;50.106;20.014;2024-03-23T13:02:06;3.22;;;1.95;;
38455;SDS011;24237;50.106;20.014;2024-03-23T13:04:33;8.83;;;2.13;;
38455;SDS011;24237;50.106;20.014;2024-03-23T13:06:59;4.25;;;1.85;;
38455;SDS011;24237;50.106;20.014;2024-03-23T13:09:25;3.05;;;2.25;;
38455;SDS011;24237;50.106;20.014;2024-03-23T13:11:50;6.63;;;2.95;;
38455;SDS011;24237;50.106;20.014;2024-03-23T13:14:16;4.13;;;2.20;;
38455;SDS011;24237;50.106;20.014;2024-03-23T13:16:42;7.15;;;1.95;;
38455;SDS011;24237;50.106;20.014;2024-03-23T13:19:07;3.50;;;1.80;;
38455;SDS011;24237;50.106;20.014;2024-03-23T13:21:33;3.50;;;1.90;;
38455;SDS011;24237;50.106;20.014;2024-03-23T13:23:58;5.50;;;1.98;;
38455;SDS011;24237;50.106;20.014;2024-03-23T13:26:24;6.63;;;2.10;;
38455;SDS011;24237;50.106;20.014;2024-03-23T13:28:50;3.05;;;1.83;;
38455;SDS011;24237;50.106;20.014;2024-03-23T13:31:15;8.95;;;1.90;;
38455;SDS011;24237;50.106;20.014;2024-03-23T13:33:41;10.60;;;2.33;;
38455;SDS011;24237;50.106;20.014;2024-03-23T13:36:09;4.40;;;1.92;;
38455;SDS011;24237;50.106;20.014;2024-03-23T13:38:34;4.28;;;2.17;;
38455;SDS011;24237;50.106;20.014;2024-03-23T13:41:00;3.20;;;1.80;;
38455;SDS011;24237;50.106;20.014;2024-03-23T13:43:27;6.75;;;1.67;;
38455;SDS011;24237;50.106;20.014;2024-03-23T13:45:54;3.63;;;2.10;;
38455;SDS011;24237;50.106;20.014;2024-03-23T13:48:21;5.28;;;2.22;;
38455;SDS011;24237;50.106;20.014;2024-03-23T13:51:00;5.35;;;2.63;;
38455;SDS011;24237;50.106;20.014;2024-03-23T13:53:27;3.00;;;2.35;;
38455;SDS011;24237;50.106;20.014;2024-03-23T13:55:52;7.80;;;2.70;;
38455;SDS011;24237;50.106;20.014;2024-03-23T13:58:19;6.35;;;2.33;;
38455;SDS011;24237;50.106;20.014;2024-03-23T14:00:44;4.78;;;2.38;;
38455;SDS011;24237;50.106;20.014;2024-03-23T14:03:10;4.95;;;2.10;;
38455;SDS011;24237;50.106;20.014;2024-03-23T14:05:37;6.47;;;2.37;;
38455;SDS011;24237;50.106;20.014;2024-03-23T14:08:08;4.30;;;2.38;;
38455;SDS011;24237;50.106;20.014;2024-03-23T14:10:35;5.78;;;2.50;;
38455;SDS011;24237;50.106;20.014;2024-03-23T14:13:01;5.78;;;2.80;;
38455;SDS011;24237;50.106;20.014;2024-03-23T14:15:28;7.45;;;2.88;;
38455;SDS011;24237;50.106;20.014;2024-03-23T14:17:55;5.82;;;2.35;;
38455;SDS011;24237;50.106;20.014;2024-03-23T14:20:22;3.07;;;2.20;;
38455;SDS011;24237;50.106;20.014;2024-03-23T14:22:48;6.85;;;1.80;;
38455;SDS011;24237;50.106;20.014;2024-03-23T14:25:14;10.43;;;2.17;;
38455;SDS011;24237;50.106;20.014;2024-03-23T14:27:40;6.70;;;2.20;;
38455;SDS011;24237;50.106;20.014;2024-03-23T14:30:06;3.97;;;1.88;;
38455;SDS011;24237;50.106;20.014;2024-03-23T14:32:33;5.68;;;1.92;;
38455;SDS011;24237;50.106;20.014;2024-03-23T14:35:02;4.47;;;1.65;;
38455;SDS011;24237;50.106;20.014;2024-03-23T14:37:29;8.10;;;1.98;;
38455;SDS011;24237;50.106;20.014;2024-03-23T14:39:57;8.18;;;2.33;;
38455;SDS011;24237;50.106;20.014;2024-03-23T14:42:24;8.57;;;2.20;;
38455;SDS011;24237;50.106;20.014;2024-03-23T14:44:53;9.27;;;2.55;;
38455;SDS011;24237;50.106;20.014;2024-03-23T14:47:19;241.15;;;18.85;;
38455;SDS011;24237;50.106;20.014;2024-03-23T14:49:46;57.90;;;5.40;;
38455;SDS011;24237;50.106;20.014;2024-03-23T14:52:15;12.13;;;2.03;;
38455;SDS011;24237;50.106;20.014;2024-03-23T14:54:41;12.70;;;1.98;;
38455;SDS011;24237;50.106;20.014;2024-03-23T14:57:07;3.95;;;1.13;;
38455;SDS011;24237;50.106;20.014;2024-03-23T14:59:36;3.00;;;1.00;;
38455;SDS011;24237;50.106;20.014;2024-03-23T15:02:06;2.90;;;1.13;;
38455;SDS011;24237;50.106;20.014;2024-03-23T15:04:32;4.50;;;1.57;;
38455;SDS011;24237;50.106;20.014;2024-03-23T15:06:58;6.38;;;1.50;;
38455;SDS011;24237;50.106;20.014;2024-03-23T15:09:23;5.50;;;1.95;;
38455;SDS011;24237;50.106;20.014;2024-03-23T15:11:49;2.92;;;1.15;;
38455;SDS011;24237;50.106;20.014;2024-03-23T15:14:15;1.58;;;1.10;;
38455;SDS011;24237;50.106;20.014;2024-03-23T15:16:40;4.40;;;1.85;;
38455;SDS011;24237;50.106;20.014;2024-03-23T15:19:07;2.30;;;1.20;;
38455;SDS011;24237;50.106;20.014;2024-03-23T15:21:33;3.67;;;1.35;;
38455;SDS011;24237;50.106;20.014;2024-03-23T15:23:59;5.13;;;1.27;;
38455;SDS011;24237;50.106;20.014;2024-03-23T15:26:24;5.18;;;1.35;;
38455;SDS011;24237;50.106;20.014;2024-03-23T15:28:50;10.02;;;2.08;;